sensor_id;sensor_type;location;lat;lon;timestamp;temperature;humidity
69162;DHT22;56269;51.738;21.652;2022-11-20T00:03:35;-7.27;99.92
69162;DHT22;56269;51.738;21.652;2022-11-20T00:06:04;-7.35;99.99
69162;DHT22;56269;51.738;21.652;2022-11-20T00:08:30;-7.38;99.99
69162;DHT22;56269;51.738;21.652;2022-11-20T00:10:57;-7.45;99.99
69162;DHT22;56269;51.738;21.652;2022-11-20T00:13:23;-7.52;99.99
69162;DHT22;56269;51.738;21.652;2022-11-20T00:15:57;-7.42;99.99
69162;DHT22;56269;51.738;21.652;2022-11-20T00:18:24;-7.56;99.99
69162;DHT22;56269;51.738;21.652;2022-11-20T00:20:51;-7.60;99.99
69162;DHT22;56269;51.738;21.652;2022-11-20T00:23:16;-7.69;99.99
69162;DHT22;56269;51.738;21.652;2022-11-20T00:25:43;-7.68;99.99
69162;DHT22;56269;51.738;21.652;2022-11-20T00:28:09;-7.68;99.99
69162;DHT22;56269;51.738;21.652;2022-11-20T00:30:35;-7.59;99.99
69162;DHT22;56269;51.738;21.652;2022-11-20T00:33:01;-7.56;99.99
69162;DHT22;56269;51.738;21.652;2022-11-20T00:35:27;-7.60;99.99
69162;DHT22;56269;51.738;21.652;2022-11-20T00:37:53;-7.71;99.99
69162;DHT22;56269;51.738;21.652;2022-11-20T00:40:20;-7.82;99.99
69162;DHT22;56269;51.738;21.652;2022-11-20T00:42:45;-7.88;99.99
69162;DHT22;56269;51.738;21.652;2022-11-20T00:45:12;-7.95;99.99
69162;DHT22;56269;51.738;21.652;2022-11-20T00:47:38;-7.97;99.99
69162;DHT22;56269;51.738;21.652;2022-11-20T00:50:04;-8.06;99.99
69162;DHT22;56269;51.738;21.652;2022-11-20T00:52:30;-8.14;99.99
69162;DHT22;56269;51.738;21.652;2022-11-20T00:54:57;-8.14;99.99
69162;DHT22;56269;51.738;21.652;2022-11-20T00:57:23;-8.17;99.99
69162;DHT22;56269;51.738;21.652;2022-11-20T00:59:49;-8.02;99.99
69162;DHT22;56269;51.738;21.652;2022-11-20T01:02:15;-7.83;99.99
69162;DHT22;56269;51.738;21.652;2022-11-20T01:04:42;-7.86;99.99
69162;DHT22;56269;51.738;21.652;2022-11-20T01:07:08;-8.02;99.99
69162;DHT22;56269;51.738;21.652;2022-11-20T01:09:34;-8.05;99.99
69162;DHT22;56269;51.738;21.652;2022-11-20T01:12:00;-8.13;99.99
69162;DHT22;56269;51.738;21.652;2022-11-20T01:14:27;-8.16;99.99
69162;DHT22;56269;51.738;21.652;2022-11-20T01:16:53;-8.14;99.99
69162;DHT22;56269;51.738;21.652;2022-11-20T01:19:21;-8.14;99.99
69162;DHT22;56269;51.738;21.652;2022-11-20T01:21:50;-8.17;99.99
69162;DHT22;56269;51.738;21.652;2022-11-20T01:24:19;-8.23;99.99
69162;DHT22;56269;51.738;21.652;2022-11-20T01:26:48;-8.17;99.99
69162;DHT22;56269;51.738;21.652;2022-11-20T01:29:17;-8.17;99.99
69162;DHT22;56269;51.738;21.652;2022-11-20T01:31:44;-8.02;99.99
69162;DHT22;56269;51.738;21.652;2022-11-20T01:34:13;-7.85;99.99
69162;DHT22;56269;51.738;21.652;2022-11-20T01:36:40;-7.66;99.99
69162;DHT22;56269;51.738;21.652;2022-11-20T01:39:11;-7.72;99.99
69162;DHT22;56269;51.738;21.652;2022-11-20T01:41:37;-7.65;99.99
69162;DHT22;56269;51.738;21.652;2022-11-20T01:44:45;-7.75;99.99
69162;DHT22;56269;51.738;21.652;2022-11-20T01:47:16;-7.78;99.99
69162;DHT22;56269;51.738;21.652;2022-11-20T01:49:50;-7.69;99.99
69162;DHT22;56269;51.738;21.652;2022-11-20T01:52:23;-7.76;99.99
69162;DHT22;56269;51.738;21.652;2022-11-20T01:55:00;-7.62;99.99
69162;DHT22;56269;51.738;21.652;2022-11-20T01:57:29;-7.56;99.99
69162;DHT22;56269;51.738;21.652;2022-11-20T02:00:02;-7.51;99.99
69162;DHT22;56269;51.738;21.652;2022-11-20T02:02:29;-7.58;99.86
69162;DHT22;56269;51.738;21.652;2022-11-20T02:05:00;-7.71;99.99
69162;DHT22;56269;51.738;21.652;2022-11-20T02:07:28;-7.81;99.99
69162;DHT22;56269;51.738;21.652;2022-11-20T02:09:55;-7.83;99.99
69162;DHT22;56269;51.738;21.652;2022-11-20T02:12:21;-7.89;99.99
69162;DHT22;56269;51.738;21.652;2022-11-20T02:15:06;-7.79;99.94
69162;DHT22;56269;51.738;21.652;2022-11-20T02:17:32;-7.79;99.99
69162;DHT22;56269;51.738;21.652;2022-11-20T02:19:58;-7.81;99.99
69162;DHT22;56269;51.738;21.652;2022-11-20T02:22:35;-7.90;99.99
69162;DHT22;56269;51.738;21.652;2022-11-20T02:25:07;-7.96;99.99
69162;DHT22;56269;51.738;21.652;2022-11-20T02:27:34;-8.07;99.99
69162;DHT22;56269;51.738;21.652;2022-11-20T02:30:05;-8.05;99.99
69162;DHT22;56269;51.738;21.652;2022-11-20T02:32:35;-7.90;99.99
69162;DHT22;56269;51.738;21.652;2022-11-20T02:37:50;-8.07;99.99
69162;DHT22;56269;51.738;21.652;2022-11-20T02:40:19;-8.03;99.99
69162;DHT22;56269;51.738;21.652;2022-11-20T02:42:45;-7.89;99.99
69162;DHT22;56269;51.738;21.652;2022-11-20T02:45:12;-8.05;99.99
69162;DHT22;56269;51.738;21.652;2022-11-20T02:47:38;-8.11;99.99
69162;DHT22;56269;51.738;21.652;2022-11-20T02:50:05;-7.97;99.99
69162;DHT22;56269;51.738;21.652;2022-11-20T02:52:31;-7.89;99.38
69162;DHT22;56269;51.738;21.652;2022-11-20T02:54:58;-8.00;99.83
69162;DHT22;56269;51.738;21.652;2022-11-20T02:57:24;-7.99;99.99
69162;DHT22;56269;51.738;21.652;2022-11-20T02:59:50;-7.83;99.90
69162;DHT22;56269;51.738;21.652;2022-11-20T03:02:16;-7.81;99.61
69162;DHT22;56269;51.738;21.652;2022-11-20T03:04:42;-7.82;99.67
69162;DHT22;56269;51.738;21.652;2022-11-20T03:07:09;-7.83;99.99
69162;DHT22;56269;51.738;21.652;2022-11-20T03:09:35;-7.62;98.95
69162;DHT22;56269;51.738;21.652;2022-11-20T03:12:01;-7.66;99.00
69162;DHT22;56269;51.738;21.652;2022-11-20T03:14:28;-7.69;99.26
69162;DHT22;56269;51.738;21.652;2022-11-20T03:16:54;-7.85;99.21
69162;DHT22;56269;51.738;21.652;2022-11-20T03:19:21;-7.92;99.99
69162;DHT22;56269;51.738;21.652;2022-11-20T03:21:47;-7.92;99.99
69162;DHT22;56269;51.738;21.652;2022-11-20T03:24:13;-7.95;99.99
69162;DHT22;56269;51.738;21.652;2022-11-20T03:26:40;-7.99;99.99
69162;DHT22;56269;51.738;21.652;2022-11-20T03:29:06;-8.03;99.99
69162;DHT22;56269;51.738;21.652;2022-11-20T03:31:38;-7.97;99.99
69162;DHT22;56269;51.738;21.652;2022-11-20T03:34:08;-8.02;99.99
69162;DHT22;56269;51.738;21.652;2022-11-20T03:36:34;-7.96;99.99
69162;DHT22;56269;51.738;21.652;2022-11-20T03:39:00;-7.89;99.99
69162;DHT22;56269;51.738;21.652;2022-11-20T03:41:29;-7.82;99.99
69162;DHT22;56269;51.738;21.652;2022-11-20T03:43:59;-7.88;99.99
69162;DHT22;56269;51.738;21.652;2022-11-20T03:46:26;-7.88;99.99
69162;DHT22;56269;51.738;21.652;2022-11-20T03:48:53;-7.90;99.99
69162;DHT22;56269;51.738;21.652;2022-11-20T03:51:33;-7.86;99.99
69162;DHT22;56269;51.738;21.652;2022-11-20T03:54:02;-7.89;99.99
69162;DHT22;56269;51.738;21.652;2022-11-20T03:56:31;-7.95;99.99
69162;DHT22;56269;51.738;21.652;2022-11-20T03:58:58;-7.99;99.99
69162;DHT22;56269;51.738;21.652;2022-11-20T04:01:27;-8.07;99.99
69162;DHT22;56269;51.738;21.652;2022-11-20T04:03:54;-8.13;99.99
69162;DHT22;56269;51.738;21.652;2022-11-20T04:06:29;-8.14;99.99
69162;DHT22;56269;51.738;21.652;2022-11-20T04:08:59;-8.24;99.99
69162;DHT22;56269;51.738;21.652;2022-11-20T04:11:28;-8.30;99.99
69162;DHT22;56269;51.738;21.652;2022-11-20T04:13:58;-8.30;99.99
69162;DHT22;56269;51.738;21.652;2022-11-20T04:16:25;-8.34;99.99
69162;DHT22;56269;51.738;21.652;2022-11-20T04:18:53;-8.30;99.99
69162;DHT22;56269;51.738;21.652;2022-11-20T04:21:19;-8.29;99.99
69162;DHT22;56269;51.738;21.652;2022-11-20T04:23:46;-8.29;99.99
69162;DHT22;56269;51.738;21.652;2022-11-20T04:26:12;-8.33;99.99
69162;DHT22;56269;51.738;21.652;2022-11-20T04:28:39;-8.27;99.99
69162;DHT22;56269;51.738;21.652;2022-11-20T04:31:11;-8.30;99.99
69162;DHT22;56269;51.738;21.652;2022-11-20T04:33:38;-8.29;99.99
69162;DHT22;56269;51.738;21.652;2022-11-20T04:36:07;-8.14;99.99
69162;DHT22;56269;51.738;21.652;2022-11-20T04:38:34;-8.03;99.99
69162;DHT22;56269;51.738;21.652;2022-11-20T04:41:02;-8.05;99.99
69162;DHT22;56269;51.738;21.652;2022-11-20T04:43:29;-8.11;99.99
69162;DHT22;56269;51.738;21.652;2022-11-20T04:45:57;-8.05;99.99
69162;DHT22;56269;51.738;21.652;2022-11-20T04:48:24;-7.90;99.99
69162;DHT22;56269;51.738;21.652;2022-11-20T04:50:51;-7.85;99.99
69162;DHT22;56269;51.738;21.652;2022-11-20T04:53:18;-7.75;99.83
69162;DHT22;56269;51.738;21.652;2022-11-20T04:55:44;-7.83;99.54
69162;DHT22;56269;51.738;21.652;2022-11-20T04:58:11;-7.86;99.99
69162;DHT22;56269;51.738;21.652;2022-11-20T05:00:38;-8.03;99.99
69162;DHT22;56269;51.738;21.652;2022-11-20T05:03:04;-8.13;99.99
69162;DHT22;56269;51.738;21.652;2022-11-20T05:05:30;-8.31;99.99
69162;DHT22;56269;51.738;21.652;2022-11-20T05:07:57;-8.42;99.99
69162;DHT22;56269;51.738;21.652;2022-11-20T05:10:26;-8.48;99.99
69162;DHT22;56269;51.738;21.652;2022-11-20T05:12:53;-8.55;99.99
69162;DHT22;56269;51.738;21.652;2022-11-20T05:15:19;-8.57;99.99
69162;DHT22;56269;51.738;21.652;2022-11-20T05:17:50;-8.69;99.99
69162;DHT22;56269;51.738;21.652;2022-11-20T05:20:17;-8.72;99.99
69162;DHT22;56269;51.738;21.652;2022-11-20T05:22:43;-8.77;99.99
69162;DHT22;56269;51.738;21.652;2022-11-20T05:25:10;-8.75;99.99
69162;DHT22;56269;51.738;21.652;2022-11-20T05:27:37;-8.81;99.99
69162;DHT22;56269;51.738;21.652;2022-11-20T05:30:04;-8.84;99.99
69162;DHT22;56269;51.738;21.652;2022-11-20T05:32:31;-8.84;99.99
69162;DHT22;56269;51.738;21.652;2022-11-20T05:34:57;-8.91;99.99
69162;DHT22;56269;51.738;21.652;2022-11-20T05:37:23;-8.67;99.99
69162;DHT22;56269;51.738;21.652;2022-11-20T05:39:49;-8.75;99.99
69162;DHT22;56269;51.738;21.652;2022-11-20T05:42:15;-8.81;99.99
69162;DHT22;56269;51.738;21.652;2022-11-20T05:44:58;-8.78;99.99
69162;DHT22;56269;51.738;21.652;2022-11-20T05:47:25;-8.77;99.99
69162;DHT22;56269;51.738;21.652;2022-11-20T05:49:51;-8.81;99.99
69162;DHT22;56269;51.738;21.652;2022-11-20T05:52:18;-8.73;99.99
69162;DHT22;56269;51.738;21.652;2022-11-20T05:54:44;-8.75;99.99
69162;DHT22;56269;51.738;21.652;2022-11-20T05:57:10;-8.75;99.99
69162;DHT22;56269;51.738;21.652;2022-11-20T05:59:36;-8.71;99.99
69162;DHT22;56269;51.738;21.652;2022-11-20T06:02:02;-8.71;99.99
69162;DHT22;56269;51.738;21.652;2022-11-20T06:04:29;-8.73;99.99
69162;DHT22;56269;51.738;21.652;2022-11-20T06:06:55;-8.69;99.99
69162;DHT22;56269;51.738;21.652;2022-11-20T06:09:21;-8.68;99.99
69162;DHT22;56269;51.738;21.652;2022-11-20T06:11:47;-8.68;99.99
69162;DHT22;56269;51.738;21.652;2022-11-20T06:14:13;-8.69;99.99
69162;DHT22;56269;51.738;21.652;2022-11-20T06:16:39;-8.61;99.99
69162;DHT22;56269;51.738;21.652;2022-11-20T06:19:05;-8.60;99.99
69162;DHT22;56269;51.738;21.652;2022-11-20T06:21:32;-8.50;99.99
69162;DHT22;56269;51.738;21.652;2022-11-20T06:23:58;-8.23;99.99
69162;DHT22;56269;51.738;21.652;2022-11-20T06:26:26;-8.03;99.99
69162;DHT22;56269;51.738;21.652;2022-11-20T06:28:53;-8.16;99.60
69162;DHT22;56269;51.738;21.652;2022-11-20T06:31:24;-8.10;99.99
69162;DHT22;56269;51.738;21.652;2022-11-20T06:33:51;-8.06;99.98
69162;DHT22;56269;51.738;21.652;2022-11-20T06:36:20;-7.95;99.63
69162;DHT22;56269;51.738;21.652;2022-11-20T06:38:46;-7.97;99.54
69162;DHT22;56269;51.738;21.652;2022-11-20T06:41:19;-7.89;99.33
69162;DHT22;56269;51.738;21.652;2022-11-20T06:43:45;-7.60;98.96
69162;DHT22;56269;51.738;21.652;2022-11-20T06:46:13;-7.41;98.05
69162;DHT22;56269;51.738;21.652;2022-11-20T06:48:40;-7.37;97.99
69162;DHT22;56269;51.738;21.652;2022-11-20T06:51:07;-7.14;97.60
69162;DHT22;56269;51.738;21.652;2022-11-20T06:53:34;-7.10;97.59
69162;DHT22;56269;51.738;21.652;2022-11-20T06:56:00;-7.05;97.16
69162;DHT22;56269;51.738;21.652;2022-11-20T06:58:27;-7.03;96.94
69162;DHT22;56269;51.738;21.652;2022-11-20T07:01:01;-6.87;97.19
69162;DHT22;56269;51.738;21.652;2022-11-20T07:03:27;-6.66;97.83
69162;DHT22;56269;51.738;21.652;2022-11-20T07:05:58;-6.46;98.21
69162;DHT22;56269;51.738;21.652;2022-11-20T07:08:25;-6.36;97.16
69162;DHT22;56269;51.738;21.652;2022-11-20T07:10:51;-6.12;97.47
69162;DHT22;56269;51.738;21.652;2022-11-20T07:13:17;-6.05;96.48
69162;DHT22;56269;51.738;21.652;2022-11-20T07:15:43;-5.84;96.39
69162;DHT22;56269;51.738;21.652;2022-11-20T07:18:09;-5.59;96.61
69162;DHT22;56269;51.738;21.652;2022-11-20T07:20:36;-5.57;95.83
69162;DHT22;56269;51.738;21.652;2022-11-20T07:23:02;-5.26;96.22
69162;DHT22;56269;51.738;21.652;2022-11-20T07:25:28;-4.91;96.93
69162;DHT22;56269;51.738;21.652;2022-11-20T07:27:58;-4.47;96.74
69162;DHT22;56269;51.738;21.652;2022-11-20T07:30:25;-4.33;95.00
69162;DHT22;56269;51.738;21.652;2022-11-20T07:32:52;-4.13;95.17
69162;DHT22;56269;51.738;21.652;2022-11-20T07:35:20;-4.02;94.87
69162;DHT22;56269;51.738;21.652;2022-11-20T07:37:46;-3.98;94.52
69162;DHT22;56269;51.738;21.652;2022-11-20T07:40:13;-3.88;94.18
69162;DHT22;56269;51.738;21.652;2022-11-20T07:42:47;-3.75;94.26
69162;DHT22;56269;51.738;21.652;2022-11-20T07:45:15;-3.75;93.89
69162;DHT22;56269;51.738;21.652;2022-11-20T07:47:41;-3.64;94.05
69162;DHT22;56269;51.738;21.652;2022-11-20T07:50:07;-3.46;93.94
69162;DHT22;56269;51.738;21.652;2022-11-20T07:52:33;-3.39;93.17
69162;DHT22;56269;51.738;21.652;2022-11-20T07:55:00;-3.40;93.18
69162;DHT22;56269;51.738;21.652;2022-11-20T07:57:26;-3.46;92.78
69162;DHT22;56269;51.738;21.652;2022-11-20T07:59:52;-3.29;93.12
69162;DHT22;56269;51.738;21.652;2022-11-20T08:02:18;-3.26;92.84
69162;DHT22;56269;51.738;21.652;2022-11-20T08:04:44;-3.09;92.98
69162;DHT22;56269;51.738;21.652;2022-11-20T08:07:10;-2.97;92.75
69162;DHT22;56269;51.738;21.652;2022-11-20T08:09:36;-2.82;92.65
69162;DHT22;56269;51.738;21.652;2022-11-20T08:12:02;-2.76;91.90
69162;DHT22;56269;51.738;21.652;2022-11-20T08:14:47;-2.52;91.86
69162;DHT22;56269;51.738;21.652;2022-11-20T08:17:13;-2.37;91.65
69162;DHT22;56269;51.738;21.652;2022-11-20T08:19:39;-2.30;91.62
69162;DHT22;56269;51.738;21.652;2022-11-20T08:22:05;-2.13;91.23
69162;DHT22;56269;51.738;21.652;2022-11-20T08:24:31;-2.17;90.30
69162;DHT22;56269;51.738;21.652;2022-11-20T08:26:58;-2.13;90.74
69162;DHT22;56269;51.738;21.652;2022-11-20T08:29:28;-1.93;90.39
69162;DHT22;56269;51.738;21.652;2022-11-20T08:31:54;-1.91;90.33
69162;DHT22;56269;51.738;21.652;2022-11-20T08:34:37;-1.91;89.59
69162;DHT22;56269;51.738;21.652;2022-11-20T08:37:03;-1.89;89.61
69162;DHT22;56269;51.738;21.652;2022-11-20T08:39:29;-1.77;89.47
69162;DHT22;56269;51.738;21.652;2022-11-20T08:41:55;-1.75;89.16
69162;DHT22;56269;51.738;21.652;2022-11-20T08:44:22;-1.39;89.51
69162;DHT22;56269;51.738;21.652;2022-11-20T08:46:48;-1.34;88.27
69162;DHT22;56269;51.738;21.652;2022-11-20T08:49:15;-1.24;87.92
69162;DHT22;56269;51.738;21.652;2022-11-20T08:51:41;-1.09;87.40
69162;DHT22;56269;51.738;21.652;2022-11-20T08:54:08;-1.09;87.24
69162;DHT22;56269;51.738;21.652;2022-11-20T08:56:34;-1.24;87.98
69162;DHT22;56269;51.738;21.652;2022-11-20T08:59:01;-0.94;87.76
69162;DHT22;56269;51.738;21.652;2022-11-20T09:01:28;-0.63;87.19
69162;DHT22;56269;51.738;21.652;2022-11-20T09:03:56;-0.79;87.73
69162;DHT22;56269;51.738;21.652;2022-11-20T09:06:22;-0.59;87.78
69162;DHT22;56269;51.738;21.652;2022-11-20T09:08:55;-0.66;86.69
69162;DHT22;56269;51.738;21.652;2022-11-20T09:11:21;-0.56;86.02
69162;DHT22;56269;51.738;21.652;2022-11-20T09:13:47;-0.15;85.75
69162;DHT22;56269;51.738;21.652;2022-11-20T09:16:13;-0.71;86.54
69162;DHT22;56269;51.738;21.652;2022-11-20T09:18:40;-0.83;86.13
69162;DHT22;56269;51.738;21.652;2022-11-20T09:21:10;-1.00;87.90
69162;DHT22;56269;51.738;21.652;2022-11-20T09:23:37;-1.01;88.02
69162;DHT22;56269;51.738;21.652;2022-11-20T09:26:05;-0.85;87.88
69162;DHT22;56269;51.738;21.652;2022-11-20T09:28:31;-0.74;87.35
69162;DHT22;56269;51.738;21.652;2022-11-20T09:30:58;-0.39;86.41
69162;DHT22;56269;51.738;21.652;2022-11-20T09:33:25;-0.66;86.81
69162;DHT22;56269;51.738;21.652;2022-11-20T09:35:51;-0.71;87.37
69162;DHT22;56269;51.738;21.652;2022-11-20T09:38:17;-0.97;87.18
69162;DHT22;56269;51.738;21.652;2022-11-20T09:46:43;-0.03;85.92
69162;DHT22;56269;51.738;21.652;2022-11-20T09:49:20;-0.12;85.13
69162;DHT22;56269;51.738;21.652;2022-11-20T09:54:17;-0.59;86.06
69162;DHT22;56269;51.738;21.652;2022-11-20T09:56:48;-0.29;86.16
69162;DHT22;56269;51.738;21.652;2022-11-20T09:59:40;-0.13;86.58
69162;DHT22;56269;51.738;21.652;2022-11-20T10:04:59;0.23;85.86
69162;DHT22;56269;51.738;21.652;2022-11-20T10:07:37;-0.06;85.70
69162;DHT22;56269;51.738;21.652;2022-11-20T10:10:04;-0.08;85.94
69162;DHT22;56269;51.738;21.652;2022-11-20T10:15:38;-0.22;86.31
69162;DHT22;56269;51.738;21.652;2022-11-20T10:26:48;-0.53;89.07
69162;DHT22;56269;51.738;21.652;2022-11-20T10:29:19;-0.81;88.88
69162;DHT22;56269;51.738;21.652;2022-11-20T10:31:55;-0.84;89.72
69162;DHT22;56269;51.738;21.652;2022-11-20T10:37:27;-0.64;88.00
69162;DHT22;56269;51.738;21.652;2022-11-20T10:42:50;-0.29;87.48
69162;DHT22;56269;51.738;21.652;2022-11-20T10:47:52;0.05;87.07
69162;DHT22;56269;51.738;21.652;2022-11-20T10:50:20;-0.12;86.91
69162;DHT22;56269;51.738;21.652;2022-11-20T10:58:16;0.09;87.46
69162;DHT22;56269;51.738;21.652;2022-11-20T11:00:44;-0.18;86.65
69162;DHT22;56269;51.738;21.652;2022-11-20T11:03:27;-0.34;88.55
69162;DHT22;56269;51.738;21.652;2022-11-20T11:06:07;-0.73;88.99
69162;DHT22;56269;51.738;21.652;2022-11-20T11:08:43;-1.04;90.01
69162;DHT22;56269;51.738;21.652;2022-11-20T11:11:23;-1.09;91.05
69162;DHT22;56269;51.738;21.652;2022-11-20T11:13:51;-1.15;90.70
69162;DHT22;56269;51.738;21.652;2022-11-20T11:16:22;-1.21;91.49
69162;DHT22;56269;51.738;21.652;2022-11-20T11:18:49;-1.19;91.67
69162;DHT22;56269;51.738;21.652;2022-11-20T11:21:24;-1.02;90.81
69162;DHT22;56269;51.738;21.652;2022-11-20T11:23:59;-0.94;90.82
69162;DHT22;56269;51.738;21.652;2022-11-20T11:26:26;-0.94;90.62
69162;DHT22;56269;51.738;21.652;2022-11-20T11:29:01;-0.94;90.91
69162;DHT22;56269;51.738;21.652;2022-11-20T11:31:34;-0.77;91.39
69162;DHT22;56269;51.738;21.652;2022-11-20T11:34:08;-0.98;90.91
69162;DHT22;56269;51.738;21.652;2022-11-20T11:36:37;-1.15;92.07
69162;DHT22;56269;51.738;21.652;2022-11-20T11:39:06;-1.07;92.61
69162;DHT22;56269;51.738;21.652;2022-11-20T11:41:35;-1.12;91.78
69162;DHT22;56269;51.738;21.652;2022-11-20T11:52:49;-1.22;92.88
69162;DHT22;56269;51.738;21.652;2022-11-20T11:58:11;-1.27;93.46
69162;DHT22;56269;51.738;21.652;2022-11-20T12:00:47;-1.36;93.85
69162;DHT22;56269;51.738;21.652;2022-11-20T12:03:24;-1.31;94.26
69162;DHT22;56269;51.738;21.652;2022-11-20T12:05:57;-1.22;93.99
69162;DHT22;56269;51.738;21.652;2022-11-20T12:08:32;-1.32;94.10
69162;DHT22;56269;51.738;21.652;2022-11-20T12:16:00;-1.36;93.75
69162;DHT22;56269;51.738;21.652;2022-11-20T12:18:28;-1.34;93.56
69162;DHT22;56269;51.738;21.652;2022-11-20T12:21:07;-1.27;92.98
69162;DHT22;56269;51.738;21.652;2022-11-20T12:26:27;-1.38;93.75
69162;DHT22;56269;51.738;21.652;2022-11-20T12:34:37;-1.43;95.16
69162;DHT22;56269;51.738;21.652;2022-11-20T12:39:55;-1.58;95.96
69162;DHT22;56269;51.738;21.652;2022-11-20T12:51:19;-1.80;95.67
69162;DHT22;56269;51.738;21.652;2022-11-20T13:05:27;-1.86;95.31
69162;DHT22;56269;51.738;21.652;2022-11-20T13:07:57;-1.87;95.43
69162;DHT22;56269;51.738;21.652;2022-11-20T13:13:25;-1.89;94.79
69162;DHT22;56269;51.738;21.652;2022-11-20T13:16:00;-1.93;94.50
69162;DHT22;56269;51.738;21.652;2022-11-20T13:18:29;-1.91;94.84
69162;DHT22;56269;51.738;21.652;2022-11-20T13:21:00;-1.93;95.04
69162;DHT22;56269;51.738;21.652;2022-11-20T13:23:27;-1.98;94.68
69162;DHT22;56269;51.738;21.652;2022-11-20T13:26:16;-2.00;94.92
69162;DHT22;56269;51.738;21.652;2022-11-20T13:28:42;-1.93;94.77
69162;DHT22;56269;51.738;21.652;2022-11-20T13:31:35;-1.91;95.00
69162;DHT22;56269;51.738;21.652;2022-11-20T13:34:05;-1.89;94.97
69162;DHT22;56269;51.738;21.652;2022-11-20T13:36:33;-1.90;94.69
69162;DHT22;56269;51.738;21.652;2022-11-20T13:39:00;-1.90;94.48
69162;DHT22;56269;51.738;21.652;2022-11-20T13:46:37;-1.87;94.98
69162;DHT22;56269;51.738;21.652;2022-11-20T13:49:17;-1.89;94.09
69162;DHT22;56269;51.738;21.652;2022-11-20T13:51:50;-1.90;95.01
69162;DHT22;56269;51.738;21.652;2022-11-20T13:57:26;-1.87;94.99
69162;DHT22;56269;51.738;21.652;2022-11-20T14:00:02;-1.86;94.71
69162;DHT22;56269;51.738;21.652;2022-11-20T14:02:31;-1.86;95.13
69162;DHT22;56269;51.738;21.652;2022-11-20T14:04:58;-1.84;94.71
69162;DHT22;56269;51.738;21.652;2022-11-20T14:07:37;-1.82;94.74
69162;DHT22;56269;51.738;21.652;2022-11-20T14:10:05;-1.89;94.52
69162;DHT22;56269;51.738;21.652;2022-11-20T14:12:33;-1.86;94.39
69162;DHT22;56269;51.738;21.652;2022-11-20T14:15:00;-1.84;94.77
69162;DHT22;56269;51.738;21.652;2022-11-20T14:17:33;-1.90;94.96
69162;DHT22;56269;51.738;21.652;2022-11-20T14:20:12;-1.89;95.28
69162;DHT22;56269;51.738;21.652;2022-11-20T14:22:51;-1.87;96.02
69162;DHT22;56269;51.738;21.652;2022-11-20T14:27:51;-1.87;95.36
69162;DHT22;56269;51.738;21.652;2022-11-20T14:30:26;-1.86;94.53
69162;DHT22;56269;51.738;21.652;2022-11-20T14:32:56;-1.84;94.95
69162;DHT22;56269;51.738;21.652;2022-11-20T14:35:29;-1.86;95.25
69162;DHT22;56269;51.738;21.652;2022-11-20T14:37:56;-1.84;95.25
69162;DHT22;56269;51.738;21.652;2022-11-20T14:40:29;-1.84;95.25
69162;DHT22;56269;51.738;21.652;2022-11-20T14:42:57;-1.77;94.44
69162;DHT22;56269;51.738;21.652;2022-11-20T14:45:25;-1.82;94.89
69162;DHT22;56269;51.738;21.652;2022-11-20T14:47:55;-1.86;95.45
69162;DHT22;56269;51.738;21.652;2022-11-20T14:50:28;-1.84;95.22
69162;DHT22;56269;51.738;21.652;2022-11-20T14:52:57;-1.84;95.52
69162;DHT22;56269;51.738;21.652;2022-11-20T14:55:35;-1.77;95.35
69162;DHT22;56269;51.738;21.652;2022-11-20T14:58:24;-1.83;95.19
69162;DHT22;56269;51.738;21.652;2022-11-20T15:01:04;-1.87;95.35
69162;DHT22;56269;51.738;21.652;2022-11-20T15:03:35;-1.82;94.58
69162;DHT22;56269;51.738;21.652;2022-11-20T15:06:03;-1.83;95.01
69162;DHT22;56269;51.738;21.652;2022-11-20T15:08:30;-1.90;93.97
69162;DHT22;56269;51.738;21.652;2022-11-20T15:10:57;-1.87;94.12
69162;DHT22;56269;51.738;21.652;2022-11-20T15:13:31;-1.93;94.63
69162;DHT22;56269;51.738;21.652;2022-11-20T15:15:59;-1.91;95.02
69162;DHT22;56269;51.738;21.652;2022-11-20T15:18:36;-1.94;94.52
69162;DHT22;56269;51.738;21.652;2022-11-20T15:21:04;-1.97;95.03
69162;DHT22;56269;51.738;21.652;2022-11-20T15:23:32;-1.94;95.01
69162;DHT22;56269;51.738;21.652;2022-11-20T15:25:58;-1.90;94.81
69162;DHT22;56269;51.738;21.652;2022-11-20T15:28:30;-1.93;94.34
69162;DHT22;56269;51.738;21.652;2022-11-20T15:30:58;-2.03;94.97
69162;DHT22;56269;51.738;21.652;2022-11-20T15:33:24;-2.08;95.06
69162;DHT22;56269;51.738;21.652;2022-11-20T15:35:50;-2.08;94.86
69162;DHT22;56269;51.738;21.652;2022-11-20T15:38:17;-2.11;95.03
69162;DHT22;56269;51.738;21.652;2022-11-20T15:40:44;-2.20;94.84
69162;DHT22;56269;51.738;21.652;2022-11-20T15:43:10;-2.27;94.93
69162;DHT22;56269;51.738;21.652;2022-11-20T15:48:38;-2.51;95.37
69162;DHT22;56269;51.738;21.652;2022-11-20T15:53:39;-2.76;95.91
69162;DHT22;56269;51.738;21.652;2022-11-20T15:56:12;-2.93;96.18
69162;DHT22;56269;51.738;21.652;2022-11-20T15:58:40;-2.95;96.20
69162;DHT22;56269;51.738;21.652;2022-11-20T16:01:16;-3.09;96.48
69162;DHT22;56269;51.738;21.652;2022-11-20T16:03:43;-3.24;96.65
69162;DHT22;56269;51.738;21.652;2022-11-20T16:06:10;-3.40;97.41
69162;DHT22;56269;51.738;21.652;2022-11-20T16:08:37;-3.33;97.82
69162;DHT22;56269;51.738;21.652;2022-11-20T16:11:04;-3.47;97.69
69162;DHT22;56269;51.738;21.652;2022-11-20T16:13:33;-3.57;97.99
69162;DHT22;56269;51.738;21.652;2022-11-20T16:16:23;-3.62;98.63
69162;DHT22;56269;51.738;21.652;2022-11-20T16:18:50;-3.81;98.41
69162;DHT22;56269;51.738;21.652;2022-11-20T16:21:17;-3.85;98.90
69162;DHT22;56269;51.738;21.652;2022-11-20T16:23:45;-3.92;99.11
69162;DHT22;56269;51.738;21.652;2022-11-20T16:26:16;-3.93;99.15
69162;DHT22;56269;51.738;21.652;2022-11-20T16:28:44;-3.93;99.17
69162;DHT22;56269;51.738;21.652;2022-11-20T16:31:13;-3.88;99.11
69162;DHT22;56269;51.738;21.652;2022-11-20T16:33:48;-3.82;99.18
69162;DHT22;56269;51.738;21.652;2022-11-20T16:36:15;-3.60;98.76
69162;DHT22;56269;51.738;21.652;2022-11-20T16:38:42;-3.61;98.35
69162;DHT22;56269;51.738;21.652;2022-11-20T16:41:09;-3.61;98.25
69162;DHT22;56269;51.738;21.652;2022-11-20T16:43:46;-3.70;98.12
69162;DHT22;56269;51.738;21.652;2022-11-20T16:46:14;-3.72;98.24
69162;DHT22;56269;51.738;21.652;2022-11-20T16:48:42;-3.70;98.28
69162;DHT22;56269;51.738;21.652;2022-11-20T16:51:10;-3.77;98.19
69162;DHT22;56269;51.738;21.652;2022-11-20T16:53:38;-3.86;98.24
69162;DHT22;56269;51.738;21.652;2022-11-20T16:56:19;-3.92;98.40
69162;DHT22;56269;51.738;21.652;2022-11-20T16:58:47;-3.89;98.50
69162;DHT22;56269;51.738;21.652;2022-11-20T17:01:16;-4.05;98.24
69162;DHT22;56269;51.738;21.652;2022-11-20T17:03:53;-4.09;98.73
69162;DHT22;56269;51.738;21.652;2022-11-20T17:06:22;-4.10;98.78
69162;DHT22;56269;51.738;21.652;2022-11-20T17:08:49;-4.17;98.47
69162;DHT22;56269;51.738;21.652;2022-11-20T17:11:18;-4.15;98.84
69162;DHT22;56269;51.738;21.652;2022-11-20T17:13:45;-4.07;98.74
69162;DHT22;56269;51.738;21.652;2022-11-20T17:16:18;-3.93;98.71